< < Back
Terminal Aerodrome Forecast


Current Version              Previous Versions:   1  2  3  4  5  6  7  8  9  

Terminal Aerodrome Forecast

829
FTUS42 KJAX 270520
TAFGNV
TAF
KGNV 270520Z 2706/2806 00000KT P6SM BKN250
     FM270900 00000KT P6SM SCT015
      TEMPO 2709/2712 3SM BR BKN015
     FM271300 29005KT P6SM SCT025
     FM271900 27007KT P6SM VCTS BKN040CB PROB30 2720/2724 -TSRA
      SCT020 BKN040CB
     FM280000 26004KT P6SM SCT050 BKN250=



Latest METAR

018
SAUS70 KWBC 271000 RRI
MTRGNV
METAR KGNV 270953Z AUTO 00000KT 10SM CLR 21/20 A2991 RMK AO2 SLP126
T02110200


USA.gov is the U.S. government's official web portal to all federal, state and local government web resources and services.